Time;durP1;ratioP1;P1;durP2;ratioP2;P2;SDS_P1;SDS_P2;PMS_P1;PMS_P2;Temp;Humidity;BMP_temperature;BMP_pressure;BME280_temperature;BME280_humidity;BME280_pressure;Samples;Min_cycle;Max_cycle;Signal;HPM_P1;HPM_P2
2022/03/02 00:01:02;;;;;;;;;;;;;;;-143.90;100.00;55262.13;2090741;28;19936;-65
2022/03/02 00:02:22;;;;;;;;;;;;;;;-143.90;100.00;55248.22;2088438;28;20011;-65
2022/03/02 00:03:43;;;;;;;;;;;;;;;-143.90;100.00;55230.34;2090158;28;20003;-65
2022/03/02 00:05:04;;;;;;;;;;;;;;;-143.90;100.00;55272.06;2089631;28;19925;-65
2022/03/02 00:06:25;;;;;;;;;;;;;;;-143.90;100.00;55274.03;2089146;28;19969;-65
2022/03/02 00:07:46;;;;;;;;;;;;;;;-143.90;100.00;55256.16;2090373;28;20453;-65
2022/03/02 00:09:07;;;;;;;;;;;;;;;-143.90;100.00;55262.13;2091367;28;19920;-65
2022/03/02 00:10:27;;;;;;;;;;;;;;;-143.90;100.00;55234.31;2089890;28;19928;-65
2022/03/02 00:11:48;;;;;;;;;;;;;;;-143.90;100.00;55252.19;2087547;28;20030;-65
2022/03/02 00:13:09;;;;;;;;;;;;;;;-143.90;100.00;55244.25;2090564;28;20369;-65
2022/03/02 00:14:30;;;;;;;;;;;;;;;-143.90;100.00;55262.13;2089700;28;19932;-65
2022/03/02 00:15:50;;;;;;;;;;;;;;;-143.90;100.00;55276.03;2089348;28;19921;-65
2022/03/02 00:17:11;;;;;;;;;;;;;;;-143.90;100.00;55246.25;2088020;28;19920;-65
2022/03/02 00:18:32;;;;;;;;;;;;;;;-143.90;100.00;55248.22;2089007;28;20027;-65
2022/03/02 00:19:53;;;;;;;;;;;;;;;-143.90;100.00;55248.22;2091040;28;19920;-65
2022/03/02 00:21:13;;;;;;;;;;;;;;;-143.90;100.00;55242.28;2088312;28;20673;-65
2022/03/02 00:22:34;;;;;;;;;;;;;;;-143.90;100.00;55266.09;2089296;28;19971;-65
2022/03/02 00:23:55;;;;;;;;;;;;;;;-143.90;100.00;55278.00;2089724;28;20445;-65
2022/03/02 00:25:15;;;;;;;;;;;;;;;-143.90;100.00;55293.91;2093342;28;19933;-65
2022/03/02 00:26:36;;;;;;;;;;;;;;;-143.90;100.00;55244.25;2098930;28;19924;-65
2022/03/02 00:27:56;;;;;;;;;;;;;;;-143.90;100.00;55274.03;2098201;28;19920;-65
2022/03/02 00:29:17;;;;;;;;;;;;;;;-143.90;100.00;55234.31;2098442;28;20327;-65
2022/03/02 00:30:38;;;;;;;;;;;;;;;-143.90;100.00;55254.19;2096412;28;20015;-65
2022/03/02 00:31:59;;;;;;;;;;;;;;;-143.90;100.00;55262.13;2097917;28;19924;-65
2022/03/02 00:33:20;;;;;;;;;;;;;;;-143.90;100.00;55248.22;2098539;28;19977;-65
2022/03/02 00:34:41;;;;;;;;;;;;;;;-143.90;100.00;55254.19;2097817;28;19921;-65
2022/03/02 00:36:02;;;;;;;;;;;;;;;-143.90;100.00;55262.13;2098687;28;19926;-65
2022/03/02 00:37:22;;;;;;;;;;;;;;;-143.90;100.00;55218.44;2099265;28;20535;-65
2022/03/02 00:38:43;;;;;;;;;;;;;;;-143.90;100.00;55242.28;2096411;28;19920;-65
2022/03/02 00:40:04;;;;;;;;;;;;;;;-143.90;100.00;55222.41;2096857;28;20006;-65
2022/03/02 00:41:25;;;;;;;;;;;;;;;-143.90;100.00;55268.09;2098068;28;20022;-65
2022/03/02 00:42:46;;;;;;;;;;;;;;;-143.90;100.00;55238.31;2098641;28;19924;-65
2022/03/02 00:44:07;;;;;;;;;;;;;;;-143.90;100.00;55232.34;2098701;28;19920;-65
2022/03/02 00:45:27;;;;;;;;;;;;;;;-143.90;100.00;55242.28;2091630;28;19932;-65
2022/03/02 00:46:48;;;;;;;;;;;;;;;-143.90;100.00;55242.28;2094597;28;20779;-65
2022/03/02 00:48:15;;;;;;;;;;;;;;;-143.90;100.00;55274.03;2100025;27;19920;-65
2022/03/02 00:49:36;;;;;;;;;;;;;;;-143.90;100.00;55238.31;2097699;28;19921;-65
2022/03/02 00:50:57;;;;;;;;;;;;;;;-143.90;100.00;55262.13;2096900;28;20342;-65
2022/03/02 00:52:18;;;;;;;;;;;;;;;-143.90;100.00;55258.16;2099290;28;19924;-65
2022/03/02 00:53:39;;;;;;;;;;;;;;;-143.90;100.00;55285.97;2098254;28;20026;-65
2022/03/02 00:54:59;;;;;;;;;;;;;;;-143.90;100.00;55222.41;2097289;28;20006;-65
2022/03/02 00:56:20;;;;;;;;;;;;;;;-143.90;100.00;55242.28;2098955;28;20755;-65
2022/03/02 00:57:41;;;;;;;;;;;;;;;-143.90;100.00;55266.09;2097364;28;19920;-65
2022/03/02 00:59:02;;;;;;;;;;;;;;;-143.90;100.00;55226.38;2098523;28;20024;-65
2022/03/02 01:00:23;;;;;;;;;;;;;;;-143.90;100.00;55226.38;2099171;28;19919;-65
2022/03/02 01:01:43;;;;;;;;;;;;;;;-143.90;100.00;55206.53;2097374;28;19920;-65
2022/03/02 01:03:04;;;;;;;;;;;;;;;-143.90;100.00;55246.25;2089487;28;19935;-65
2022/03/02 01:04:25;;;;;;;;;;;;;;;-143.90;100.00;55274.03;2093608;28;19927;-65
2022/03/02 01:05:46;;;;;;;;;;;;;;;-143.90;100.00;55258.16;2098029;28;21124;-65
2022/03/02 01:07:06;;;;;;;;;;;;;;;-143.90;100.00;55274.03;2098489;28;19924;-65
2022/03/02 01:08:27;;;;;;;;;;;;;;;-143.90;100.00;55250.22;2096870;28;19921;-65
2022/03/02 01:09:48;;;;;;;;;;;;;;;-143.90;100.00;55242.28;2096983;28;19981;-65
2022/03/02 01:11:08;;;;;;;;;;;;;;;-143.90;100.00;55218.44;2088894;28;19924;-65
2022/03/02 01:12:29;;;;;;;;;;;;;;;-143.90;100.00;55266.09;2103453;28;19924;-64
2022/03/02 01:13:50;;;;;;;;;;;;;;;-143.90;100.00;55246.25;2099441;28;19924;-65
2022/03/02 01:15:11;;;;;;;;;;;;;;;-143.90;100.00;55214.47;2097040;28;20434;-65
2022/03/02 01:16:33;;;;;;;;;;;;;;;-143.90;100.00;55230.34;2090192;28;20911;-65
2022/03/02 01:17:53;;;;;;;;;;;;;;;-143.90;100.00;55242.28;2094262;28;19920;-65
2022/03/02 01:19:14;;;;;;;;;;;;;;;-143.90;100.00;55210.50;2096235;28;20575;-65
2022/03/02 01:20:35;;;;;;;;;;;;;;;-143.90;100.00;55230.34;2095304;28;20421;-65
2022/03/02 01:21:55;;;;;;;;;;;;;;;-143.90;100.00;55266.09;2097857;28;19920;-65
2022/03/02 01:23:16;;;;;;;;;;;;;;;-143.90;100.00;55222.41;2098534;28;19947;-65
2022/03/02 01:24:37;;;;;;;;;;;;;;;-143.90;100.00;55242.28;2098016;28;19997;-65
2022/03/02 01:25:57;;;;;;;;;;;;;;;-143.90;100.00;55234.31;2088589;28;19925;-65
2022/03/02 01:27:18;;;;;;;;;;;;;;;-143.90;100.00;55246.25;2088389;28;19929;-65
2022/03/02 01:28:39;;;;;;;;;;;;;;;-143.90;100.00;55301.84;2088397;28;19943;-65
2022/03/02 01:29:59;;;;;;;;;;;;;;;-143.90;100.00;55242.28;2088797;28;20392;-65
2022/03/02 01:31:21;;;;;;;;;;;;;;;-143.90;100.00;55276.03;2089147;28;19978;-65
2022/03/02 01:32:42;;;;;;;;;;;;;;;-143.90;100.00;55254.19;2082197;28;19921;-65
2022/03/02 01:34:03;;;;;;;;;;;;;;;-143.90;100.00;55264.13;2087247;28;19920;-65
2022/03/02 01:35:23;;;;;;;;;;;;;;;-143.90;100.00;55242.28;2088664;28;20705;-65
2022/03/02 01:36:44;;;;;;;;;;;;;;;-143.90;100.00;55250.22;2087746;28;19928;-65
2022/03/02 01:38:05;;;;;;;;;;;;;;;-143.90;100.00;55250.22;2089704;28;20023;-65
2022/03/02 01:39:25;;;;;;;;;;;;;;;-143.90;100.00;55256.16;2087946;28;19921;-65
2022/03/02 01:40:46;;;;;;;;;;;;;;;-143.90;100.00;55266.09;2090467;28;19928;-65
2022/03/02 01:42:07;;;;;;;;;;;;;;;-143.90;100.00;55246.25;2088980;28;19924;-65
2022/03/02 01:43:28;;;;;;;;;;;;;;;-143.90;100.00;55262.13;2088905;28;19920;-65
2022/03/02 01:44:48;;;;;;;;;;;;;;;-143.90;100.00;55266.09;2089937;28;20457;-65
2022/03/02 01:46:09;;;;;;;;;;;;;;;-143.90;100.00;55281.97;2087525;28;20494;-65
2022/03/02 01:47:30;;;;;;;;;;;;;;;-143.90;100.00;55244.25;2087839;28;19925;-65
2022/03/02 01:48:50;;;;;;;;;;;;;;;-143.90;100.00;55258.16;2090302;28;19921;-65
2022/03/02 01:50:12;;;;;;;;;;;;;;;-143.90;100.00;55264.13;2088340;28;20283;-65
2022/03/02 01:51:33;;;;;;;;;;;;;;;-143.90;100.00;55254.19;2089364;28;20066;-65
2022/03/02 01:52:53;;;;;;;;;;;;;;;-143.90;100.00;55274.03;2088343;28;19948;-65
2022/03/02 01:54:14;;;;;;;;;;;;;;;-143.90;100.00;55278.00;2089032;28;19920;-65
2022/03/02 01:55:35;;;;;;;;;;;;;;;-143.90;100.00;55230.34;2091077;28;20464;-65
2022/03/02 01:56:56;;;;;;;;;;;;;;;-143.90;100.00;55220.44;2088868;28;19925;-65
2022/03/02 01:58:16;;;;;;;;;;;;;;;-143.90;100.00;55315.75;2090330;28;19920;-65
2022/03/02 01:59:37;;;;;;;;;;;;;;;-143.90;100.00;55230.34;2087593;28;19920;-65
2022/03/02 02:00:59;;;;;;;;;;;;;;;-143.90;100.00;55250.22;2088665;28;19927;-65
2022/03/02 02:02:19;;;;;;;;;;;;;;;-143.90;100.00;55262.13;2089026;28;20659;-65
2022/03/02 02:03:40;;;;;;;;;;;;;;;-143.90;100.00;55232.34;2089759;28;20404;-65
2022/03/02 02:05:01;;;;;;;;;;;;;;;-143.90;100.00;55250.22;2087810;28;19935;-65
2022/03/02 02:06:22;;;;;;;;;;;;;;;-143.90;100.00;55222.41;2089102;28;19920;-65
2022/03/02 02:07:43;;;;;;;;;;;;;;;-143.90;100.00;55301.84;2088908;28;20377;-65
2022/03/02 02:09:04;;;;;;;;;;;;;;;-143.90;100.00;55274.03;2088865;28;19920;-65
2022/03/02 02:10:25;;;;;;;;;;;;;;;-143.90;100.00;55238.31;2089248;28;19974;-65
2022/03/02 02:11:46;;;;;;;;;;;;;;;-143.90;100.00;55262.13;2090289;28;20082;-65
2022/03/02 02:13:06;;;;;;;;;;;;;;;-143.90;100.00;55262.13;2088821;28;19928;-65
2022/03/02 02:14:27;;;;;;;;;;;;;;;-143.90;100.00;55232.34;2089750;28;19921;-65
2022/03/02 02:15:48;;;;;;;;;;;;;;;-143.90;100.00;55210.50;2089592;28;20361;-65
2022/03/02 02:17:08;;;;;;;;;;;;;;;-143.90;100.00;55202.56;2090077;28;19983;-65
2022/03/02 02:18:29;;;;;;;;;;;;;;;-143.90;100.00;55266.09;2087502;28;19968;-65
2022/03/02 02:19:50;;;;;;;;;;;;;;;-143.90;100.00;55242.28;2089851;28;19925;-65
2022/03/02 02:21:10;;;;;;;;;;;;;;;-143.90;100.00;55266.09;2086719;28;19931;-65
2022/03/02 02:22:31;;;;;;;;;;;;;;;-143.90;100.00;55224.41;2088798;28;20304;-65
2022/03/02 02:23:52;;;;;;;;;;;;;;;-143.90;100.00;55246.25;2095116;28;19998;-65
2022/03/02 02:25:13;;;;;;;;;;;;;;;-143.90;100.00;55238.31;2094852;28;19924;-65
2022/03/02 02:26:34;;;;;;;;;;;;;;;-143.90;100.00;55278.00;2090530;28;19920;-66
2022/03/02 02:27:55;;;;;;;;;;;;;;;-143.90;100.00;55238.31;2097713;28;20405;-66
2022/03/02 02:29:16;;;;;;;;;;;;;;;-143.90;100.00;55266.09;2098641;28;19920;-66
2022/03/02 02:30:37;;;;;;;;;;;;;;;-143.90;100.00;55266.09;2106632;28;20028;-66
2022/03/02 02:31:58;;;;;;;;;;;;;;;-143.90;100.00;55254.19;2102983;27;19973;-66
2022/03/02 02:33:19;;;;;;;;;;;;;;;-143.90;100.00;55276.03;2098525;28;19920;-67
2022/03/02 02:34:40;;;;;;;;;;;;;;;-143.90;100.00;55250.22;2100369;28;19931;-66
2022/03/02 02:36:00;;;;;;;;;;;;;;;-143.90;100.00;55258.16;2098925;28;19931;-66
2022/03/02 02:37:21;;;;;;;;;;;;;;;-143.90;100.00;55270.06;2099050;28;19939;-65
2022/03/02 02:38:42;;;;;;;;;;;;;;;-143.90;100.00;55270.06;2105919;28;20508;-66
2022/03/02 02:40:05;;;;;;;;;;;;;;;-143.90;100.00;55268.09;2102343;28;19924;-66
2022/03/02 02:41:26;;;;;;;;;;;;;;;-143.90;100.00;55262.13;2098063;28;20326;-66
2022/03/02 02:42:47;;;;;;;;;;;;;;;-143.90;100.00;55287.94;2100369;28;19996;-65
2022/03/02 02:44:08;;;;;;;;;;;;;;;-143.90;100.00;55317.72;2099323;28;19926;-66
2022/03/02 02:45:29;;;;;;;;;;;;;;;-143.90;100.00;55264.13;2099273;28;19920;-66
2022/03/02 02:46:50;;;;;;;;;;;;;;;-143.90;100.00;55280.00;2099727;28;19931;-66
2022/03/02 02:48:11;;;;;;;;;;;;;;;-143.90;100.00;55242.28;2099007;28;19924;-66
2022/03/02 02:49:31;;;;;;;;;;;;;;;-143.90;100.00;55305.81;2098643;28;19924;-66
2022/03/02 02:50:52;;;;;;;;;;;;;;;-143.90;100.00;55238.31;2100858;28;19920;-65
2022/03/02 02:52:13;;;;;;;;;;;;;;;-143.90;100.00;55268.09;2099838;28;19956;-65
2022/03/02 02:53:34;;;;;;;;;;;;;;;-143.90;100.00;55230.34;2097976;28;19929;-65
2022/03/02 02:54:54;;;;;;;;;;;;;;;-143.90;100.00;55208.50;2099132;28;19927;-66
2022/03/02 02:56:15;;;;;;;;;;;;;;;-143.90;100.00;55248.22;2099159;28;19920;-65
2022/03/02 02:57:35;;;;;;;;;;;;;;;-143.90;100.00;55262.13;2098869;28;20019;-65
2022/03/02 02:58:56;;;;;;;;;;;;;;;-143.90;100.00;55256.16;2099431;28;20358;-66
2022/03/02 03:00:18;;;;;;;;;;;;;;;-143.90;100.00;55327.66;2099784;28;19921;-66
2022/03/02 03:01:39;;;;;;;;;;;;;;;-143.90;100.00;55280.00;2094731;28;19927;-65
2022/03/02 03:03:00;;;;;;;;;;;;;;;-143.90;100.00;55238.31;2098753;28;19924;-65
2022/03/02 03:04:20;;;;;;;;;;;;;;;-143.90;100.00;55238.31;2099254;28;19919;-65
2022/03/02 03:05:41;;;;;;;;;;;;;;;-143.90;100.00;55242.28;2097492;28;20694;-65
2022/03/02 03:07:02;;;;;;;;;;;;;;;-143.90;100.00;55234.31;2099933;28;19923;-65
2022/03/02 03:08:23;;;;;;;;;;;;;;;-143.90;100.00;55262.13;2097840;28;19920;-65
2022/03/02 03:09:43;;;;;;;;;;;;;;;-143.90;100.00;55250.22;2097249;28;19971;-64
2022/03/02 03:11:05;;;;;;;;;;;;;;;-143.90;100.00;55252.19;2098260;28;20769;-65
2022/03/02 03:12:25;;;;;;;;;;;;;;;-143.90;100.00;55234.31;2099875;28;19924;-65
2022/03/02 03:13:46;;;;;;;;;;;;;;;-143.90;100.00;55274.03;2098373;28;19931;-65
2022/03/02 03:15:09;;;;;;;;;;;;;;;-143.90;100.00;55250.22;2098591;28;20466;-65
2022/03/02 03:16:29;;;;;;;;;;;;;;;-143.90;100.00;55262.13;2104679;28;20038;-65
2022/03/02 03:17:50;;;;;;;;;;;;;;;-143.90;100.00;55270.06;2100817;28;19928;-65
2022/03/02 03:19:11;;;;;;;;;;;;;;;-143.90;100.00;55262.13;2098624;28;19920;-66
2022/03/02 03:20:32;;;;;;;;;;;;;;;-143.90;100.00;55262.13;2099682;28;19921;-65
2022/03/02 03:21:53;;;;;;;;;;;;;;;-143.90;100.00;55230.34;2099976;27;20722;-65
2022/03/02 03:23:14;;;;;;;;;;;;;;;-143.90;100.00;55246.25;2097624;28;19920;-65
2022/03/02 03:24:34;;;;;;;;;;;;;;;-143.90;100.00;55240.28;2099302;28;20354;-66
2022/03/02 03:25:55;;;;;;;;;;;;;;;-143.90;100.00;55278.00;2099318;28;19924;-65
2022/03/02 03:27:15;;;;;;;;;;;;;;;-143.90;100.00;55278.00;2098064;28;19935;-65
2022/03/02 03:28:36;;;;;;;;;;;;;;;-143.90;100.00;55218.44;2098961;28;20641;-66
2022/03/02 03:29:57;;;;;;;;;;;;;;;-143.90;100.00;55218.44;2099233;28;20093;-65
2022/03/02 03:31:18;;;;;;;;;;;;;;;-143.90;100.00;55262.13;2098845;28;19963;-65
2022/03/02 03:32:39;;;;;;;;;;;;;;;-143.90;100.00;55244.25;2098379;28;19924;-65
2022/03/02 03:33:59;;;;;;;;;;;;;;;-143.90;100.00;55266.09;2098093;28;20952;-66
2022/03/02 03:35:21;;;;;;;;;;;;;;;-143.90;100.00;55222.41;2097739;28;19973;-65
2022/03/02 03:36:42;;;;;;;;;;;;;;;-143.90;100.00;55262.13;2096793;28;20440;-65
2022/03/02 03:38:03;;;;;;;;;;;;;;;-143.90;100.00;55268.09;2099177;28;19924;-65
2022/03/02 03:39:23;;;;;;;;;;;;;;;-143.90;100.00;55270.06;2098422;28;19927;-65
2022/03/02 03:40:44;;;;;;;;;;;;;;;-143.90;100.00;55246.25;2090847;28;20137;-65
2022/03/02 03:42:05;;;;;;;;;;;;;;;-143.90;100.00;55272.06;2096806;28;19920;-65
2022/03/02 03:43:25;;;;;;;;;;;;;;;-143.90;100.00;55256.16;2097733;28;19927;-65
2022/03/02 03:44:46;;;;;;;;;;;;;;;-143.90;100.00;55222.41;2099402;28;19920;-66
2022/03/02 03:46:07;;;;;;;;;;;;;;;-143.90;100.00;55230.34;2097955;28;20023;-65
2022/03/02 03:47:28;;;;;;;;;;;;;;;-143.90;100.00;55264.13;2098010;28;20360;-65
2022/03/02 03:48:50;;;;;;;;;;;;;;;-143.90;100.00;55254.19;2097567;28;19920;-66
2022/03/02 03:50:11;;;;;;;;;;;;;;;-143.90;100.00;55274.03;2098912;28;20133;-66
2022/03/02 03:51:33;;;;;;;;;;;;;;;-143.90;100.00;55268.09;2098226;28;20999;-66
2022/03/02 03:52:54;;;;;;;;;;;;;;;-143.90;100.00;55262.13;2097873;28;19939;-66
2022/03/02 03:54:15;;;;;;;;;;;;;;;-143.90;100.00;55222.41;2099483;28;19924;-66
2022/03/02 03:55:38;;;;;;;;;;;;;;;-143.90;100.00;55254.19;2097572;28;19935;-66
2022/03/02 03:56:59;;;;;;;;;;;;;;;-143.90;100.00;55278.00;2098564;28;19920;-66
2022/03/02 03:58:19;;;;;;;;;;;;;;;-143.90;100.00;55274.03;2098428;28;19927;-66
2022/03/02 03:59:40;;;;;;;;;;;;;;;-143.90;100.00;55270.06;2098032;28;19924;-66
2022/03/02 04:01:01;;;;;;;;;;;;;;;-143.90;100.00;55256.16;2099750;28;20647;-66
2022/03/02 04:02:21;;;;;;;;;;;;;;;-143.90;100.00;55266.09;2097627;28;19926;-65
2022/03/02 04:03:42;;;;;;;;;;;;;;;-143.90;100.00;55276.03;2098628;28;19932;-66
2022/03/02 04:05:03;;;;;;;;;;;;;;;-143.90;100.00;55254.19;2098685;28;20316;-65
2022/03/02 04:06:23;;;;;;;;;;;;;;;-143.90;100.00;55254.19;2099082;28;20249;-66
2022/03/02 04:07:45;;;;;;;;;;;;;;;-143.90;100.00;55258.16;2099961;28;20717;-66
2022/03/02 04:09:06;;;;;;;;;;;;;;;-143.90;100.00;55272.06;2099031;28;19920;-65
2022/03/02 04:10:27;;;;;;;;;;;;;;;-143.90;100.00;55276.03;2098054;28;19994;-66
2022/03/02 04:11:48;;;;;;;;;;;;;;;-143.90;100.00;55242.28;2089996;28;20392;-66
2022/03/02 04:13:09;;;;;;;;;;;;;;;-143.90;100.00;55242.28;2094867;28;19958;-66
2022/03/02 04:14:29;;;;;;;;;;;;;;;-143.90;100.00;55266.09;2096500;28;19960;-66
2022/03/02 04:15:50;;;;;;;;;;;;;;;-143.90;100.00;55224.41;2091939;28;20538;-66
2022/03/02 04:17:11;;;;;;;;;;;;;;;-143.90;100.00;55272.06;2096400;28;19942;-66
2022/03/02 04:18:32;;;;;;;;;;;;;;;-143.90;100.00;55250.22;2099089;28;20031;-66
2022/03/02 04:19:53;;;;;;;;;;;;;;;-143.90;100.00;55264.13;2098057;28;19920;-66
2022/03/02 04:21:14;;;;;;;;;;;;;;;-143.90;100.00;55226.38;2097975;28;19921;-66
2022/03/02 04:22:35;;;;;;;;;;;;;;;-143.90;100.00;55262.13;2096829;28;19920;-66
2022/03/02 04:23:55;;;;;;;;;;;;;;;-143.90;100.00;55260.16;2098125;28;19924;-66
2022/03/02 04:25:16;;;;;;;;;;;;;;;-143.90;100.00;55254.19;2097682;28;19928;-66
2022/03/02 04:26:37;;;;;;;;;;;;;;;-143.90;100.00;55252.19;2096074;28;20047;-66
2022/03/02 04:27:57;;;;;;;;;;;;;;;-143.90;100.00;55258.16;2098406;28;19920;-66
2022/03/02 04:29:18;;;;;;;;;;;;;;;-143.90;100.00;55287.94;2098143;28;20035;-66
2022/03/02 04:30:39;;;;;;;;;;;;;;;-143.90;100.00;55242.28;2098702;28;19920;-65
2022/03/02 04:32:00;;;;;;;;;;;;;;;-143.90;100.00;55242.28;2097948;28;19928;-66
2022/03/02 04:33:21;;;;;;;;;;;;;;;-143.90;100.00;55254.19;2098918;28;19928;-66
2022/03/02 04:34:41;;;;;;;;;;;;;;;-143.90;100.00;55246.25;2106082;28;20713;-66
2022/03/02 04:36:02;;;;;;;;;;;;;;;-143.90;100.00;55266.09;2101756;27;19920;-66
2022/03/02 04:37:23;;;;;;;;;;;;;;;-143.90;100.00;55293.91;2097629;28;20405;-66
2022/03/02 04:38:44;;;;;;;;;;;;;;;-143.90;100.00;55281.97;2099498;28;19998;-66
2022/03/02 04:40:06;;;;;;;;;;;;;;;-143.90;100.00;55246.25;2099370;27;19921;-66
2022/03/02 04:41:27;;;;;;;;;;;;;;;-143.90;100.00;55226.38;2097398;28;19920;-66
2022/03/02 04:42:47;;;;;;;;;;;;;;;-143.90;100.00;55262.13;2098910;28;19920;-66
2022/03/02 04:44:08;;;;;;;;;;;;;;;-143.90;100.00;55248.22;2088169;28;20483;-66
2022/03/02 04:45:29;;;;;;;;;;;;;;;-143.90;100.00;55238.31;2092668;28;19974;-66
2022/03/02 04:46:51;;;;;;;;;;;;;;;-143.90;100.00;55278.00;2097045;28;19978;-66
2022/03/02 04:48:12;;;;;;;;;;;;;;;-143.90;100.00;55254.19;2097664;28;19948;-65
2022/03/02 04:49:32;;;;;;;;;;;;;;;-143.90;100.00;55240.28;2099491;28;20473;-66
2022/03/02 04:50:53;;;;;;;;;;;;;;;-143.90;100.00;55278.00;2088556;28;19927;-66
2022/03/02 04:52:14;;;;;;;;;;;;;;;-143.90;100.00;55252.19;2093274;28;20372;-66
2022/03/02 04:53:34;;;;;;;;;;;;;;;-143.90;100.00;55274.03;2096894;28;20390;-66
2022/03/02 04:55:07;;;;;;;;;;;;;;;-143.90;100.00;55293.91;2098370;28;19959;-64
2022/03/02 04:56:28;;;;;;;;;;;;;;;-143.90;100.00;55262.13;2097950;28;19921;-66
2022/03/02 04:57:50;;;;;;;;;;;;;;;-143.90;100.00;55256.16;2097884;28;19926;-66
2022/03/02 04:59:10;;;;;;;;;;;;;;;-143.90;100.00;55248.22;2098044;28;20344;-65
2022/03/02 05:00:35;;;;;;;;;;;;;;;-143.90;100.00;55266.09;2098336;28;20542;-66
2022/03/02 05:01:57;;;;;;;;;;;;;;;-143.90;100.00;55262.13;2098189;28;20462;-66
2022/03/02 05:03:17;;;;;;;;;;;;;;;-143.90;100.00;55230.34;2097466;28;19935;-66
2022/03/02 05:04:38;;;;;;;;;;;;;;;-143.90;100.00;55256.16;2096822;28;19924;-66
2022/03/02 05:05:59;;;;;;;;;;;;;;;-143.90;100.00;55258.16;2097461;28;20049;-66
2022/03/02 05:07:19;;;;;;;;;;;;;;;-143.90;100.00;55258.16;2096480;27;20749;-66
2022/03/02 05:08:40;;;;;;;;;;;;;;;-143.90;100.00;55266.09;2089834;28;20292;-67
2022/03/02 05:10:01;;;;;;;;;;;;;;;-143.90;100.00;55250.22;2094862;28;19920;-66
2022/03/02 05:11:22;;;;;;;;;;;;;;;-143.90;100.00;55246.25;2097990;28;20379;-63
2022/03/02 05:12:42;;;;;;;;;;;;;;;-143.90;100.00;55280.00;2098449;28;19924;-63
2022/03/02 05:14:04;;;;;;;;;;;;;;;-143.90;100.00;55258.16;2097213;28;20028;-64
2022/03/02 05:15:25;;;;;;;;;;;;;;;-143.90;100.00;55234.31;2099438;27;19920;-65
2022/03/02 05:16:46;;;;;;;;;;;;;;;-143.90;100.00;55264.13;2099293;28;19924;-64
2022/03/02 05:18:06;;;;;;;;;;;;;;;-143.90;100.00;55230.34;2097102;28;20023;-65
2022/03/02 05:19:27;;;;;;;;;;;;;;;-143.90;100.00;55264.13;2098170;28;19921;-65
2022/03/02 05:20:48;;;;;;;;;;;;;;;-143.90;100.00;55266.09;2096763;28;19924;-65
2022/03/02 05:22:09;;;;;;;;;;;;;;;-143.90;100.00;55278.00;2096750;28;19920;-65
2022/03/02 05:23:30;;;;;;;;;;;;;;;-143.90;100.00;55248.22;2096811;28;19916;-65
2022/03/02 05:24:50;;;;;;;;;;;;;;;-143.90;100.00;55240.28;2098185;28;19924;-64
2022/03/02 05:26:11;;;;;;;;;;;;;;;-143.90;100.00;55276.03;2098318;28;19920;-65
2022/03/02 05:27:32;;;;;;;;;;;;;;;-143.90;100.00;55262.13;2096921;28;19954;-65
2022/03/02 05:28:53;;;;;;;;;;;;;;;-143.90;100.00;55258.16;2097677;28;19923;-64
2022/03/02 05:30:13;;;;;;;;;;;;;;;-143.90;100.00;55266.09;2097371;28;19927;-65
2022/03/02 05:31:34;;;;;;;;;;;;;;;-143.90;100.00;55276.03;2096917;28;19924;-64
2022/03/02 05:32:55;;;;;;;;;;;;;;;-143.90;100.00;55254.19;2098076;28;20394;-65
2022/03/02 05:34:15;;;;;;;;;;;;;;;-143.90;100.00;55287.94;2098527;27;19916;-64
2022/03/02 05:35:39;;;;;;;;;;;;;;;-143.90;100.00;55262.13;2098033;28;19977;-64
2022/03/02 05:36:59;;;;;;;;;;;;;;;-143.90;100.00;55258.16;2097035;28;19916;-65
2022/03/02 05:38:20;;;;;;;;;;;;;;;-143.90;100.00;55281.97;2097822;28;20001;-64
2022/03/02 05:39:40;;;;;;;;;;;;;;;-143.90;100.00;55246.25;2096942;28;20311;-64
2022/03/02 05:41:01;;;;;;;;;;;;;;;-143.90;100.00;55250.22;2097687;28;19924;-65
2022/03/02 05:42:22;;;;;;;;;;;;;;;-143.90;100.00;55262.13;2097832;28;19965;-65
2022/03/02 05:43:42;;;;;;;;;;;;;;;-143.90;100.00;55250.22;2097868;28;20391;-65
2022/03/02 05:45:03;;;;;;;;;;;;;;;-143.90;100.00;55238.31;2097189;28;19962;-65
2022/03/02 05:46:24;;;;;;;;;;;;;;;-143.90;100.00;55266.09;2104696;28;19916;-65
2022/03/02 05:47:44;;;;;;;;;;;;;;;-143.90;100.00;55258.16;2092287;27;20463;-65
2022/03/02 05:49:05;;;;;;;;;;;;;;;-143.90;100.00;55262.13;2094626;28;20360;-64
2022/03/02 05:50:26;;;;;;;;;;;;;;;-143.90;100.00;55270.06;2097711;28;20414;-65
2022/03/02 05:51:47;;;;;;;;;;;;;;;-143.90;100.00;55278.00;2097238;28;19920;-64
2022/03/02 05:53:07;;;;;;;;;;;;;;;-143.90;100.00;55285.97;2097853;28;20303;-65
2022/03/02 05:54:28;;;;;;;;;;;;;;;-143.90;100.00;55258.16;2097264;28;20390;-65
2022/03/02 05:55:49;;;;;;;;;;;;;;;-143.90;100.00;55262.13;2097062;28;19920;-64
2022/03/02 05:57:09;;;;;;;;;;;;;;;-143.90;100.00;55238.31;2097320;28;19988;-64
2022/03/02 05:58:30;;;;;;;;;;;;;;;-143.90;100.00;55250.22;2097315;28;19932;-65
2022/03/02 05:59:51;;;;;;;;;;;;;;;-143.90;100.00;55234.31;2098053;28;20469;-65
2022/03/02 06:01:11;;;;;;;;;;;;;;;-143.90;100.00;55234.31;2097468;28;19920;-65
2022/03/02 06:02:32;;;;;;;;;;;;;;;-143.90;100.00;55281.97;2098921;28;19923;-64
2022/03/02 06:03:53;;;;;;;;;;;;;;;-143.90;100.00;55246.25;2097736;28;19963;-64
2022/03/02 06:05:14;;;;;;;;;;;;;;;-143.90;100.00;55270.06;2097112;28;19920;-64
2022/03/02 06:06:35;;;;;;;;;;;;;;;-143.90;100.00;55281.97;2097281;28;19920;-64
2022/03/02 06:07:56;;;;;;;;;;;;;;;-143.90;100.00;55297.88;2097612;28;19920;-64
2022/03/02 06:09:16;;;;;;;;;;;;;;;-143.90;100.00;55266.09;2097368;28;19927;-65
2022/03/02 06:10:37;;;;;;;;;;;;;;;-143.90;100.00;55291.91;2096893;28;20588;-63
2022/03/02 06:11:58;;;;;;;;;;;;;;;-143.90;100.00;55254.19;2097090;28;19924;-64
2022/03/02 06:13:19;;;;;;;;;;;;;;;-143.90;100.00;55278.00;2097122;28;19916;-64
2022/03/02 06:14:40;;;;;;;;;;;;;;;-143.90;100.00;55214.47;2096504;28;20852;-64
2022/03/02 06:16:01;;;;;;;;;;;;;;;-143.90;100.00;55270.06;2098220;28;19924;-64
2022/03/02 06:17:22;;;;;;;;;;;;;;;-143.90;100.00;55278.00;2097524;28;19920;-63
2022/03/02 06:18:42;;;;;;;;;;;;;;;-143.90;100.00;55254.19;2097977;28;19951;-64
2022/03/02 06:20:03;;;;;;;;;;;;;;;-143.90;100.00;55262.13;2096425;28;19916;-64
2022/03/02 06:21:27;;;;;;;;;;;;;;;-143.90;100.00;55238.31;2097056;28;19920;-64
2022/03/02 06:22:48;;;;;;;;;;;;;;;-143.90;100.00;55268.09;2097245;28;19952;-64
2022/03/02 06:24:09;;;;;;;;;;;;;;;-143.90;100.00;55242.28;2098207;28;19920;-65
2022/03/02 06:25:30;;;;;;;;;;;;;;;-143.90;100.00;55238.31;2097777;28;19936;-64
2022/03/02 06:26:51;;;;;;;;;;;;;;;-143.90;100.00;55232.34;2098410;28;19921;-64
2022/03/02 06:28:12;;;;;;;;;;;;;;;-143.90;100.00;55285.97;2096578;28;19916;-64
2022/03/02 06:29:33;;;;;;;;;;;;;;;-143.90;100.00;55254.19;2106113;28;20413;-65
2022/03/02 06:30:53;;;;;;;;;;;;;;;-143.90;100.00;55287.94;2098943;28;19920;-62
2022/03/02 06:32:15;;;;;;;;;;;;;;;-143.90;100.00;55270.06;2098180;28;19920;-64
2022/03/02 06:33:36;;;;;;;;;;;;;;;-143.90;100.00;55264.13;2098842;28;19924;-64
2022/03/02 06:34:58;;;;;;;;;;;;;;;-143.90;100.00;55226.38;2096969;28;19921;-64
2022/03/02 06:36:20;;;;;;;;;;;;;;;-143.90;100.00;55278.00;2097188;28;19916;-62
2022/03/02 06:37:40;;;;;;;;;;;;;;;-143.90;100.00;55268.09;2096751;28;19924;-64
2022/03/02 06:39:01;;;;;;;;;;;;;;;-143.90;100.00;55246.25;2105247;28;19915;-64
2022/03/02 06:40:22;;;;;;;;;;;;;;;-143.90;100.00;55274.03;2093011;27;19927;-64
2022/03/02 06:41:49;;;;;;;;;;;;;;;-143.90;100.00;55274.03;2094351;28;19916;-63
2022/03/02 06:43:11;;;;;;;;;;;;;;;-143.90;100.00;55270.06;2098911;28;19920;-64
2022/03/02 06:44:34;;;;;;;;;;;;;;;-143.90;100.00;55270.06;2103962;28;20796;-64
2022/03/02 06:45:55;;;;;;;;;;;;;;;-143.90;100.00;55260.16;2090925;28;19923;-64